babestar.ru alexa rank chart, babestar.ru alexa rank daily changes

babestar.ru alexa rank chart, babestar.ru alexa rank daily changes

babestar.ru
Actual rank:
177 476

RANK HISTORY

Date Rank Diff
2017/04/27 177 476 +154
2017/04/26 177 322 -321
2017/04/25 177 643 -2 238
2017/04/24 179 881 -5 896
2017/04/23 185 777 +828
2017/04/22 184 949 -1 453
2017/04/21 186 402 +746
2017/04/20 185 656 +3 388
2017/04/19 182 268 -2 115
2017/04/18 184 383 +1 018
2017/04/17 183 365 +938
2017/04/16 182 427 +1 229
2017/04/15 181 198 +721
2017/04/14 180 477 +2 353
2017/04/13 178 124 +1 338
2017/04/12 176 786 +3 693
2017/04/11 173 093 -315
2017/04/10 173 408 -2 341
2017/04/09 175 749 +1 078
2017/04/08 174 671 +904
2017/04/07 173 767 +799
2017/04/06 172 968 +3 698
2017/04/05 169 270 +195
2017/04/04 169 075 -4 452
2017/04/03 173 527 -4 077
2017/04/02 177 604 -1 921
2017/04/01 179 525 +2 308
2017/03/31 177 217 -1 475
2017/03/30 178 692 +880
2017/03/29 177 812 -4 215
2017/03/28 182 027 -9 371
2017/03/27 191 398 -5 844
2017/03/26 197 242 -5 294
2017/03/25 202 536 -5 069
2017/03/24 207 605 -4 567
2017/03/23 212 172 -7 550
2017/03/22 219 722 -7 409
2017/03/21 227 131 -12 966
2017/03/20 240 097 -13 540
2017/03/19 253 637 -7 297
2017/03/18 260 934 -18 230
2017/03/17 279 164 -16 778
2017/03/16 295 942 -15 770
2017/03/15 311 712 -16 684
2017/03/14 328 396 -22 059
2017/03/13 350 455 -28 178
2017/03/12 378 633 -39 476
2017/03/11 418 109 -34 014
2017/03/10 452 123 -28 717
2017/03/09 480 840 -43 293
2017/03/08 524 133 -319 436
2017/03/07 843 569 +79 551
2017/03/06 764 018 -26 065
2017/03/01 790 083 -17 574
2017/02/28 807 657 +988
2017/02/27 806 669 -14 810
2017/02/26 821 479

WIDGET FOR YOUR SITE

DOMAINS WITH THE NEAREST RANK

Domain Rank
bandier.com 177 471
raml.org 177 472
chichowarez.com 177 473
delta-grup.ru 177 474
savefromnet.com 177 475
babestar.ru 177 476
ericsoft.com 177 477
c-inform.info 177 478
eskimo.com 177 479
aeondewine.com 177 480
mbs.ac.uk 177 481

DOMAINS WITH THE NEAREST RANK BY TLD .ru

Domain Rank
zenmoney.ru 177 411
igrynadvoih.ru 177 416
fc-ural.ru 177 441
opennov.ru 177 458
delta-grup.ru 177 474
babestar.ru 177 476
exceltip.ru 177 505
templated.ru 177 512
rfs.ru 177 520
utema.ru 177 528
ticketok.ru 177 559